sensor_id;sensor_type;location;lat;lon;timestamp;temperature;humidity
15364;DHT22;7781;49.690;6.472;2022-07-30T00:00:24;14.90;99.90
15364;DHT22;7781;49.690;6.472;2022-07-30T00:02:54;14.90;99.90
15364;DHT22;7781;49.690;6.472;2022-07-30T00:05:22;14.80;99.90
15364;DHT22;7781;49.690;6.472;2022-07-30T00:07:50;14.70;99.90
15364;DHT22;7781;49.690;6.472;2022-07-30T00:10:18;14.70;99.90
15364;DHT22;7781;49.690;6.472;2022-07-30T00:12:48;14.70;99.90
15364;DHT22;7781;49.690;6.472;2022-07-30T00:15:16;14.70;99.90
15364;DHT22;7781;49.690;6.472;2022-07-30T00:17:45;14.70;99.90
15364;DHT22;7781;49.690;6.472;2022-07-30T00:20:16;14.70;99.90
15364;DHT22;7781;49.690;6.472;2022-07-30T00:22:44;14.70;99.90
15364;DHT22;7781;49.690;6.472;2022-07-30T00:25:13;14.60;99.90
15364;DHT22;7781;49.690;6.472;2022-07-30T00:27:41;14.60;99.90
15364;DHT22;7781;49.690;6.472;2022-07-30T00:30:11;14.50;99.90
15364;DHT22;7781;49.690;6.472;2022-07-30T00:32:42;14.40;99.90
15364;DHT22;7781;49.690;6.472;2022-07-30T00:35:10;14.30;99.90
15364;DHT22;7781;49.690;6.472;2022-07-30T00:37:40;14.20;99.90
15364;DHT22;7781;49.690;6.472;2022-07-30T00:40:08;14.10;99.90
15364;DHT22;7781;49.690;6.472;2022-07-30T00:42:38;14.10;99.90
15364;DHT22;7781;49.690;6.472;2022-07-30T00:45:07;14.10;99.90
15364;DHT22;7781;49.690;6.472;2022-07-30T00:47:36;14.00;99.90
15364;DHT22;7781;49.690;6.472;2022-07-30T00:50:07;13.90;99.90
15364;DHT22;7781;49.690;6.472;2022-07-30T00:52:36;13.90;99.90
15364;DHT22;7781;49.690;6.472;2022-07-30T00:55:08;13.90;99.90
15364;DHT22;7781;49.690;6.472;2022-07-30T00:57:36;13.80;99.90
15364;DHT22;7781;49.690;6.472;2022-07-30T01:00:07;13.80;99.90
15364;DHT22;7781;49.690;6.472;2022-07-30T01:02:36;13.80;99.90
15364;DHT22;7781;49.690;6.472;2022-07-30T01:05:06;13.80;99.90
15364;DHT22;7781;49.690;6.472;2022-07-30T01:07:34;13.80;99.90
15364;DHT22;7781;49.690;6.472;2022-07-30T01:10:04;13.90;99.90
15364;DHT22;7781;49.690;6.472;2022-07-30T01:12:34;13.80;99.90
15364;DHT22;7781;49.690;6.472;2022-07-30T01:15:05;13.80;99.90
15364;DHT22;7781;49.690;6.472;2022-07-30T01:17:33;13.80;99.90
15364;DHT22;7781;49.690;6.472;2022-07-30T01:20:06;13.80;99.90
15364;DHT22;7781;49.690;6.472;2022-07-30T01:22:44;13.80;99.90
15364;DHT22;7781;49.690;6.472;2022-07-30T01:28:00;13.70;99.90
15364;DHT22;7781;49.690;6.472;2022-07-30T01:30:31;13.60;99.90
15364;DHT22;7781;49.690;6.472;2022-07-30T01:33:02;13.60;99.90
15364;DHT22;7781;49.690;6.472;2022-07-30T01:35:32;13.60;99.90
15364;DHT22;7781;49.690;6.472;2022-07-30T01:38:03;13.60;99.90
15364;DHT22;7781;49.690;6.472;2022-07-30T01:40:34;13.60;99.90
15364;DHT22;7781;49.690;6.472;2022-07-30T01:43:06;13.60;99.90
15364;DHT22;7781;49.690;6.472;2022-07-30T01:45:35;13.60;99.90
15364;DHT22;7781;49.690;6.472;2022-07-30T01:48:11;13.60;99.90
15364;DHT22;7781;49.690;6.472;2022-07-30T01:50:43;13.50;99.90
15364;DHT22;7781;49.690;6.472;2022-07-30T01:53:14;13.40;99.90
15364;DHT22;7781;49.690;6.472;2022-07-30T01:55:44;13.50;99.90
15364;DHT22;7781;49.690;6.472;2022-07-30T01:58:17;13.40;99.90
15364;DHT22;7781;49.690;6.472;2022-07-30T02:00:51;13.40;99.90
15364;DHT22;7781;49.690;6.472;2022-07-30T02:03:21;13.40;99.90
15364;DHT22;7781;49.690;6.472;2022-07-30T02:06:00;13.40;99.90
15364;DHT22;7781;49.690;6.472;2022-07-30T02:08:35;13.30;99.90
15364;DHT22;7781;49.690;6.472;2022-07-30T02:11:08;13.30;99.90
15364;DHT22;7781;49.690;6.472;2022-07-30T02:13:43;13.30;99.90
15364;DHT22;7781;49.690;6.472;2022-07-30T02:16:15;13.30;99.90
15364;DHT22;7781;49.690;6.472;2022-07-30T02:18:51;13.30;99.90
15364;DHT22;7781;49.690;6.472;2022-07-30T02:21:25;13.20;99.90
15364;DHT22;7781;49.690;6.472;2022-07-30T02:24:07;13.10;99.90
15364;DHT22;7781;49.690;6.472;2022-07-30T02:26:38;13.20;99.90
15364;DHT22;7781;49.690;6.472;2022-07-30T02:29:09;13.30;99.90
15364;DHT22;7781;49.690;6.472;2022-07-30T02:31:39;13.30;99.90
15364;DHT22;7781;49.690;6.472;2022-07-30T02:34:09;13.30;99.90
15364;DHT22;7781;49.690;6.472;2022-07-30T02:36:38;13.20;99.90
15364;DHT22;7781;49.690;6.472;2022-07-30T02:39:09;13.10;99.90
15364;DHT22;7781;49.690;6.472;2022-07-30T02:41:39;13.10;99.90
15364;DHT22;7781;49.690;6.472;2022-07-30T02:44:17;13.00;99.90
15364;DHT22;7781;49.690;6.472;2022-07-30T02:46:47;13.00;99.90
15364;DHT22;7781;49.690;6.472;2022-07-30T02:49:29;13.00;99.90
15364;DHT22;7781;49.690;6.472;2022-07-30T02:51:59;12.90;99.90
15364;DHT22;7781;49.690;6.472;2022-07-30T02:54:29;12.80;99.90
15364;DHT22;7781;49.690;6.472;2022-07-30T02:56:59;12.80;99.90
15364;DHT22;7781;49.690;6.472;2022-07-30T02:59:30;12.80;99.90
15364;DHT22;7781;49.690;6.472;2022-07-30T03:02:00;12.80;99.90
15364;DHT22;7781;49.690;6.472;2022-07-30T03:04:31;12.80;99.90
15364;DHT22;7781;49.690;6.472;2022-07-30T03:07:01;12.70;99.90
15364;DHT22;7781;49.690;6.472;2022-07-30T03:09:35;12.60;99.90
15364;DHT22;7781;49.690;6.472;2022-07-30T03:12:19;12.60;99.90
15364;DHT22;7781;49.690;6.472;2022-07-30T03:14:49;12.70;99.90
15364;DHT22;7781;49.690;6.472;2022-07-30T03:17:18;12.70;99.90
15364;DHT22;7781;49.690;6.472;2022-07-30T03:19:48;12.70;99.90
15364;DHT22;7781;49.690;6.472;2022-07-30T03:22:18;12.60;99.90
15364;DHT22;7781;49.690;6.472;2022-07-30T03:24:47;12.60;99.90
15364;DHT22;7781;49.690;6.472;2022-07-30T03:27:16;12.50;99.90
15364;DHT22;7781;49.690;6.472;2022-07-30T03:29:46;12.50;99.90
15364;DHT22;7781;49.690;6.472;2022-07-30T03:32:16;12.50;99.90
15364;DHT22;7781;49.690;6.472;2022-07-30T03:34:52;12.50;99.90
15364;DHT22;7781;49.690;6.472;2022-07-30T03:37:23;12.50;99.90
15364;DHT22;7781;49.690;6.472;2022-07-30T03:39:52;12.50;99.90
15364;DHT22;7781;49.690;6.472;2022-07-30T03:42:21;12.60;99.90
15364;DHT22;7781;49.690;6.472;2022-07-30T03:44:50;12.60;99.90
15364;DHT22;7781;49.690;6.472;2022-07-30T03:47:22;12.50;99.90
15364;DHT22;7781;49.690;6.472;2022-07-30T03:49:51;12.40;99.90
15364;DHT22;7781;49.690;6.472;2022-07-30T03:52:20;12.30;99.90
15364;DHT22;7781;49.690;6.472;2022-07-30T03:54:50;12.30;99.90
15364;DHT22;7781;49.690;6.472;2022-07-30T03:57:50;12.20;99.90
15364;DHT22;7781;49.690;6.472;2022-07-30T04:00:24;12.10;99.90
15364;DHT22;7781;49.690;6.472;2022-07-30T04:02:55;12.10;99.90
15364;DHT22;7781;49.690;6.472;2022-07-30T04:05:33;12.00;99.90
15364;DHT22;7781;49.690;6.472;2022-07-30T04:08:08;12.00;99.90
15364;DHT22;7781;49.690;6.472;2022-07-30T04:10:37;12.00;99.90
15364;DHT22;7781;49.690;6.472;2022-07-30T04:13:34;12.00;99.90
15364;DHT22;7781;49.690;6.472;2022-07-30T04:16:08;12.10;99.90
15364;DHT22;7781;49.690;6.472;2022-07-30T04:19:00;12.10;99.90
15364;DHT22;7781;49.690;6.472;2022-07-30T04:21:31;12.10;99.90
15364;DHT22;7781;49.690;6.472;2022-07-30T04:24:00;12.10;99.90
15364;DHT22;7781;49.690;6.472;2022-07-30T04:26:34;12.10;99.90
15364;DHT22;7781;49.690;6.472;2022-07-30T04:29:05;12.20;99.90
15364;DHT22;7781;49.690;6.472;2022-07-30T04:31:34;12.20;99.90
15364;DHT22;7781;49.690;6.472;2022-07-30T04:34:27;12.20;99.90
15364;DHT22;7781;49.690;6.472;2022-07-30T04:36:55;12.20;99.90
15364;DHT22;7781;49.690;6.472;2022-07-30T04:39:24;12.30;99.90
15364;DHT22;7781;49.690;6.472;2022-07-30T04:41:53;12.30;99.90
15364;DHT22;7781;49.690;6.472;2022-07-30T04:44:39;12.30;99.90
15364;DHT22;7781;49.690;6.472;2022-07-30T04:47:31;12.30;99.90
15364;DHT22;7781;49.690;6.472;2022-07-30T04:50:27;12.40;99.90
15364;DHT22;7781;49.690;6.472;2022-07-30T04:52:57;12.40;99.90
15364;DHT22;7781;49.690;6.472;2022-07-30T04:55:28;12.50;99.90
15364;DHT22;7781;49.690;6.472;2022-07-30T04:57:58;12.50;99.90
15364;DHT22;7781;49.690;6.472;2022-07-30T05:00:30;12.60;99.90
15364;DHT22;7781;49.690;6.472;2022-07-30T05:03:08;12.60;99.90
15364;DHT22;7781;49.690;6.472;2022-07-30T05:05:42;12.60;99.90
15364;DHT22;7781;49.690;6.472;2022-07-30T05:08:11;12.60;99.90
15364;DHT22;7781;49.690;6.472;2022-07-30T05:10:41;12.70;99.90
15364;DHT22;7781;49.690;6.472;2022-07-30T05:13:11;12.70;99.90
15364;DHT22;7781;49.690;6.472;2022-07-30T05:15:41;12.70;99.90
15364;DHT22;7781;49.690;6.472;2022-07-30T05:18:12;12.80;99.90
15364;DHT22;7781;49.690;6.472;2022-07-30T05:20:43;12.80;99.90
15364;DHT22;7781;49.690;6.472;2022-07-30T05:23:34;12.90;99.90
15364;DHT22;7781;49.690;6.472;2022-07-30T05:26:25;13.00;99.90
15364;DHT22;7781;49.690;6.472;2022-07-30T05:28:55;13.10;99.90
15364;DHT22;7781;49.690;6.472;2022-07-30T05:31:30;13.20;99.90
15364;DHT22;7781;49.690;6.472;2022-07-30T05:34:01;13.30;99.90
15364;DHT22;7781;49.690;6.472;2022-07-30T05:36:40;13.40;99.90
15364;DHT22;7781;49.690;6.472;2022-07-30T05:39:12;13.40;99.90
15364;DHT22;7781;49.690;6.472;2022-07-30T05:42:00;13.50;99.90
15364;DHT22;7781;49.690;6.472;2022-07-30T05:44:39;13.60;99.90
15364;DHT22;7781;49.690;6.472;2022-07-30T05:47:07;13.70;99.90
15364;DHT22;7781;49.690;6.472;2022-07-30T05:49:37;13.80;99.90
15364;DHT22;7781;49.690;6.472;2022-07-30T05:52:13;13.80;99.90
15364;DHT22;7781;49.690;6.472;2022-07-30T05:54:42;14.00;99.90
15364;DHT22;7781;49.690;6.472;2022-07-30T05:57:28;14.10;99.90
15364;DHT22;7781;49.690;6.472;2022-07-30T05:59:56;14.20;99.90
15364;DHT22;7781;49.690;6.472;2022-07-30T06:02:43;14.30;99.90
15364;DHT22;7781;49.690;6.472;2022-07-30T06:05:30;14.40;99.90
15364;DHT22;7781;49.690;6.472;2022-07-30T06:08:02;14.50;99.90
15364;DHT22;7781;49.690;6.472;2022-07-30T06:10:31;14.60;99.90
15364;DHT22;7781;49.690;6.472;2022-07-30T06:12:59;14.70;99.90
15364;DHT22;7781;49.690;6.472;2022-07-30T06:15:27;14.80;99.90
15364;DHT22;7781;49.690;6.472;2022-07-30T06:17:56;14.90;99.90
15364;DHT22;7781;49.690;6.472;2022-07-30T06:20:49;14.90;99.90
15364;DHT22;7781;49.690;6.472;2022-07-30T06:23:39;15.10;99.90
15364;DHT22;7781;49.690;6.472;2022-07-30T06:26:13;15.20;99.90
15364;DHT22;7781;49.690;6.472;2022-07-30T06:28:42;15.30;99.90
15364;DHT22;7781;49.690;6.472;2022-07-30T06:31:25;15.40;99.90
15364;DHT22;7781;49.690;6.472;2022-07-30T06:33:54;15.60;99.90
15364;DHT22;7781;49.690;6.472;2022-07-30T06:36:24;15.70;99.90
15364;DHT22;7781;49.690;6.472;2022-07-30T06:39:07;15.80;99.90
15364;DHT22;7781;49.690;6.472;2022-07-30T06:41:54;15.90;99.90
15364;DHT22;7781;49.690;6.472;2022-07-30T06:44:26;16.00;99.90
15364;DHT22;7781;49.690;6.472;2022-07-30T06:47:12;16.10;99.90
15364;DHT22;7781;49.690;6.472;2022-07-30T06:49:41;16.20;99.90
15364;DHT22;7781;49.690;6.472;2022-07-30T06:52:09;16.30;99.90
15364;DHT22;7781;49.690;6.472;2022-07-30T06:54:48;16.40;99.90
15364;DHT22;7781;49.690;6.472;2022-07-30T06:57:22;16.60;99.90
15364;DHT22;7781;49.690;6.472;2022-07-30T06:59:51;16.70;99.90
15364;DHT22;7781;49.690;6.472;2022-07-30T07:02:35;16.80;99.90
15364;DHT22;7781;49.690;6.472;2022-07-30T07:05:09;17.00;99.90
15364;DHT22;7781;49.690;6.472;2022-07-30T07:07:40;17.10;99.90
15364;DHT22;7781;49.690;6.472;2022-07-30T07:10:25;17.20;99.90
15364;DHT22;7781;49.690;6.472;2022-07-30T07:13:03;17.40;90.40
15364;DHT22;7781;49.690;6.472;2022-07-30T07:15:34;17.50;58.20
15364;DHT22;7781;49.690;6.472;2022-07-30T07:18:07;17.60;57.30
15364;DHT22;7781;49.690;6.472;2022-07-30T07:20:37;17.60;55.60
15364;DHT22;7781;49.690;6.472;2022-07-30T07:23:08;17.80;54.80
15364;DHT22;7781;49.690;6.472;2022-07-30T07:25:40;17.90;54.40
15364;DHT22;7781;49.690;6.472;2022-07-30T07:28:09;18.00;51.80
15364;DHT22;7781;49.690;6.472;2022-07-30T07:30:43;18.10;51.00
15364;DHT22;7781;49.690;6.472;2022-07-30T07:33:12;18.20;44.60
15364;DHT22;7781;49.690;6.472;2022-07-30T07:35:44;18.40;43.40
15364;DHT22;7781;49.690;6.472;2022-07-30T07:38:19;18.50;37.50
15364;DHT22;7781;49.690;6.472;2022-07-30T07:40:50;18.60;32.70
15364;DHT22;7781;49.690;6.472;2022-07-30T07:43:18;18.70;30.10
15364;DHT22;7781;49.690;6.472;2022-07-30T07:45:47;18.80;33.20
15364;DHT22;7781;49.690;6.472;2022-07-30T07:48:16;18.90;28.30
15364;DHT22;7781;49.690;6.472;2022-07-30T07:50:58;19.00;29.70
15364;DHT22;7781;49.690;6.472;2022-07-30T07:53:30;19.10;29.00
15364;DHT22;7781;49.690;6.472;2022-07-30T07:55:59;19.20;23.20
15364;DHT22;7781;49.690;6.472;2022-07-30T07:58:28;19.30;21.00
15364;DHT22;7781;49.690;6.472;2022-07-30T08:01:00;19.40;17.60
15364;DHT22;7781;49.690;6.472;2022-07-30T08:03:48;19.50;18.80
15364;DHT22;7781;49.690;6.472;2022-07-30T08:06:54;19.60;17.00
15364;DHT22;7781;49.690;6.472;2022-07-30T08:09:43;19.70;17.00
15364;DHT22;7781;49.690;6.472;2022-07-30T08:12:19;19.90;14.90
15364;DHT22;7781;49.690;6.472;2022-07-30T08:15:07;20.10;7.60
15364;DHT22;7781;49.690;6.472;2022-07-30T08:17:53;20.20;8.90
15364;DHT22;7781;49.690;6.472;2022-07-30T08:20:34;20.20;8.60
15364;DHT22;7781;49.690;6.472;2022-07-30T08:23:03;20.30;6.40
15364;DHT22;7781;49.690;6.472;2022-07-30T08:25:32;20.40;6.40
15364;DHT22;7781;49.690;6.472;2022-07-30T08:28:01;20.50;5.90
15364;DHT22;7781;49.690;6.472;2022-07-30T08:30:29;20.60;6.00
15364;DHT22;7781;49.690;6.472;2022-07-30T08:32:58;20.60;7.20
15364;DHT22;7781;49.690;6.472;2022-07-30T08:35:26;20.80;5.30
15364;DHT22;7781;49.690;6.472;2022-07-30T08:37:54;20.90;1.60
15364;DHT22;7781;49.690;6.472;2022-07-30T08:40:25;21.00;1.00
15364;DHT22;7781;49.690;6.472;2022-07-30T08:43:04;21.10;1.00
15364;DHT22;7781;49.690;6.472;2022-07-30T08:45:33;21.40;1.00
15364;DHT22;7781;49.690;6.472;2022-07-30T08:48:15;21.50;1.00
15364;DHT22;7781;49.690;6.472;2022-07-30T08:50:44;21.60;1.00
15364;DHT22;7781;49.690;6.472;2022-07-30T08:53:32;21.80;1.00
15364;DHT22;7781;49.690;6.472;2022-07-30T08:56:02;21.90;1.00
15364;DHT22;7781;49.690;6.472;2022-07-30T08:58:33;22.00;1.00
15364;DHT22;7781;49.690;6.472;2022-07-30T09:01:02;22.10;1.00
15364;DHT22;7781;49.690;6.472;2022-07-30T09:03:31;22.30;1.00
15364;DHT22;7781;49.690;6.472;2022-07-30T09:06:02;22.40;1.00
15364;DHT22;7781;49.690;6.472;2022-07-30T09:08:30;22.50;1.00
15364;DHT22;7781;49.690;6.472;2022-07-30T09:10:59;22.50;1.00
15364;DHT22;7781;49.690;6.472;2022-07-30T09:13:28;22.60;1.00
15364;DHT22;7781;49.690;6.472;2022-07-30T09:16:00;22.70;1.00
15364;DHT22;7781;49.690;6.472;2022-07-30T09:18:33;22.90;1.00
15364;DHT22;7781;49.690;6.472;2022-07-30T09:21:13;23.10;1.00
15364;DHT22;7781;49.690;6.472;2022-07-30T09:23:56;23.20;1.00
15364;DHT22;7781;49.690;6.472;2022-07-30T09:26:54;23.30;1.00
15364;DHT22;7781;49.690;6.472;2022-07-30T09:29:41;23.30;1.00
15364;DHT22;7781;49.690;6.472;2022-07-30T09:32:48;23.40;1.00
15364;DHT22;7781;49.690;6.472;2022-07-30T09:35:31;23.40;1.00
15364;DHT22;7781;49.690;6.472;2022-07-30T09:38:09;23.50;1.00
15364;DHT22;7781;49.690;6.472;2022-07-30T09:40:58;23.60;1.00
15364;DHT22;7781;49.690;6.472;2022-07-30T09:43:52;23.70;1.00
15364;DHT22;7781;49.690;6.472;2022-07-30T09:46:40;23.90;1.00
15364;DHT22;7781;49.690;6.472;2022-07-30T09:49:14;24.00;1.00
15364;DHT22;7781;49.690;6.472;2022-07-30T09:51:44;24.10;1.00
15364;DHT22;7781;49.690;6.472;2022-07-30T09:54:24;24.10;1.00
15364;DHT22;7781;49.690;6.472;2022-07-30T09:57:03;24.20;1.00
15364;DHT22;7781;49.690;6.472;2022-07-30T09:59:56;24.30;1.00
15364;DHT22;7781;49.690;6.472;2022-07-30T10:02:30;24.50;1.00
15364;DHT22;7781;49.690;6.472;2022-07-30T10:05:20;24.70;1.00
15364;DHT22;7781;49.690;6.472;2022-07-30T10:07:51;24.80;1.00
15364;DHT22;7781;49.690;6.472;2022-07-30T10:10:21;25.00;1.00
15364;DHT22;7781;49.690;6.472;2022-07-30T10:12:55;24.90;1.00
15364;DHT22;7781;49.690;6.472;2022-07-30T10:15:28;25.10;1.00
15364;DHT22;7781;49.690;6.472;2022-07-30T10:17:59;25.10;1.00
15364;DHT22;7781;49.690;6.472;2022-07-30T10:20:47;25.10;1.00
15364;DHT22;7781;49.690;6.472;2022-07-30T10:23:48;25.10;1.00
15364;DHT22;7781;49.690;6.472;2022-07-30T10:26:37;25.10;1.00
15364;DHT22;7781;49.690;6.472;2022-07-30T10:29:26;25.30;1.00
15364;DHT22;7781;49.690;6.472;2022-07-30T10:32:00;25.50;1.00
15364;DHT22;7781;49.690;6.472;2022-07-30T10:34:29;25.60;1.00
15364;DHT22;7781;49.690;6.472;2022-07-30T10:37:03;25.70;1.00
15364;DHT22;7781;49.690;6.472;2022-07-30T10:39:36;25.70;1.00
15364;DHT22;7781;49.690;6.472;2022-07-30T10:42:19;25.60;1.00
15364;DHT22;7781;49.690;6.472;2022-07-30T10:47:54;25.90;1.00
15364;DHT22;7781;49.690;6.472;2022-07-30T10:50:24;26.20;1.00
15364;DHT22;7781;49.690;6.472;2022-07-30T10:52:56;26.40;1.00
15364;DHT22;7781;49.690;6.472;2022-07-30T10:55:27;26.50;1.00
15364;DHT22;7781;49.690;6.472;2022-07-30T10:58:06;26.60;1.00
15364;DHT22;7781;49.690;6.472;2022-07-30T11:00:58;26.70;1.00
15364;DHT22;7781;49.690;6.472;2022-07-30T11:03:27;26.80;1.00
15364;DHT22;7781;49.690;6.472;2022-07-30T11:06:26;26.90;1.00
15364;DHT22;7781;49.690;6.472;2022-07-30T11:08:59;26.90;1.00
15364;DHT22;7781;49.690;6.472;2022-07-30T11:11:45;27.10;1.00
15364;DHT22;7781;49.690;6.472;2022-07-30T11:14:54;27.20;1.00
15364;DHT22;7781;49.690;6.472;2022-07-30T11:17:57;27.70;1.00
15364;DHT22;7781;49.690;6.472;2022-07-30T11:20:28;27.90;1.00
15364;DHT22;7781;49.690;6.472;2022-07-30T11:23:19;28.30;1.00
15364;DHT22;7781;49.690;6.472;2022-07-30T11:26:03;28.50;1.00
15364;DHT22;7781;49.690;6.472;2022-07-30T11:28:36;28.40;1.00
15364;DHT22;7781;49.690;6.472;2022-07-30T11:31:26;28.40;1.00
15364;DHT22;7781;49.690;6.472;2022-07-30T11:34:26;28.40;1.00
15364;DHT22;7781;49.690;6.472;2022-07-30T11:37:08;28.70;1.00
15364;DHT22;7781;49.690;6.472;2022-07-30T11:40:05;28.80;1.00
15364;DHT22;7781;49.690;6.472;2022-07-30T11:42:38;28.90;1.00
15364;DHT22;7781;49.690;6.472;2022-07-30T11:45:24;29.10;1.00
15364;DHT22;7781;49.690;6.472;2022-07-30T11:47:59;29.10;1.00
15364;DHT22;7781;49.690;6.472;2022-07-30T11:50:29;29.10;1.00
15364;DHT22;7781;49.690;6.472;2022-07-30T11:53:00;29.20;1.00
15364;DHT22;7781;49.690;6.472;2022-07-30T11:55:31;29.40;1.00
15364;DHT22;7781;49.690;6.472;2022-07-30T11:58:02;29.50;1.00
15364;DHT22;7781;49.690;6.472;2022-07-30T12:00:36;29.50;1.00
15364;DHT22;7781;49.690;6.472;2022-07-30T12:03:09;29.70;1.00
15364;DHT22;7781;49.690;6.472;2022-07-30T12:05:38;29.60;1.00
15364;DHT22;7781;49.690;6.472;2022-07-30T12:08:07;29.70;1.00
15364;DHT22;7781;49.690;6.472;2022-07-30T12:10:58;29.80;1.00
15364;DHT22;7781;49.690;6.472;2022-07-30T12:13:28;30.30;1.00
15364;DHT22;7781;49.690;6.472;2022-07-30T12:16:12;30.20;1.00
15364;DHT22;7781;49.690;6.472;2022-07-30T12:18:41;30.40;1.00
15364;DHT22;7781;49.690;6.472;2022-07-30T12:21:10;30.50;1.00
15364;DHT22;7781;49.690;6.472;2022-07-30T12:23:41;30.70;1.00
15364;DHT22;7781;49.690;6.472;2022-07-30T12:26:19;30.80;1.00
15364;DHT22;7781;49.690;6.472;2022-07-30T12:28:49;31.40;1.00
15364;DHT22;7781;49.690;6.472;2022-07-30T12:31:18;31.40;1.00
15364;DHT22;7781;49.690;6.472;2022-07-30T12:33:46;31.60;1.00
15364;DHT22;7781;49.690;6.472;2022-07-30T12:36:25;31.60;1.00
15364;DHT22;7781;49.690;6.472;2022-07-30T12:38:54;31.60;1.00
15364;DHT22;7781;49.690;6.472;2022-07-30T12:41:39;31.30;1.00
15364;DHT22;7781;49.690;6.472;2022-07-30T12:44:10;31.40;1.00
15364;DHT22;7781;49.690;6.472;2022-07-30T12:46:39;31.50;1.00
15364;DHT22;7781;49.690;6.472;2022-07-30T12:49:08;31.80;1.00
15364;DHT22;7781;49.690;6.472;2022-07-30T12:51:50;31.90;1.00
15364;DHT22;7781;49.690;6.472;2022-07-30T12:54:26;32.40;1.00
15364;DHT22;7781;49.690;6.472;2022-07-30T12:56:56;32.60;1.00
15364;DHT22;7781;49.690;6.472;2022-07-30T12:59:28;32.70;1.00
15364;DHT22;7781;49.690;6.472;2022-07-30T13:01:57;32.90;1.00
15364;DHT22;7781;49.690;6.472;2022-07-30T13:04:27;32.00;1.00
15364;DHT22;7781;49.690;6.472;2022-07-30T13:07:08;31.60;1.00
15364;DHT22;7781;49.690;6.472;2022-07-30T13:09:37;31.70;1.00
15364;DHT22;7781;49.690;6.472;2022-07-30T13:12:11;31.90;1.00
15364;DHT22;7781;49.690;6.472;2022-07-30T13:14:40;32.30;1.00
15364;DHT22;7781;49.690;6.472;2022-07-30T13:17:08;32.70;1.00
15364;DHT22;7781;49.690;6.472;2022-07-30T13:19:36;32.60;1.00
15364;DHT22;7781;49.690;6.472;2022-07-30T13:22:05;32.20;1.00
15364;DHT22;7781;49.690;6.472;2022-07-30T13:24:33;32.00;1.00
15364;DHT22;7781;49.690;6.472;2022-07-30T13:27:01;32.30;1.00
15364;DHT22;7781;49.690;6.472;2022-07-30T13:29:29;32.90;1.00
15364;DHT22;7781;49.690;6.472;2022-07-30T13:31:59;33.30;1.00
15364;DHT22;7781;49.690;6.472;2022-07-30T13:34:27;33.30;1.00
15364;DHT22;7781;49.690;6.472;2022-07-30T13:36:55;33.70;1.00
15364;DHT22;7781;49.690;6.472;2022-07-30T13:39:23;33.50;1.00
15364;DHT22;7781;49.690;6.472;2022-07-30T13:41:51;33.00;1.00
15364;DHT22;7781;49.690;6.472;2022-07-30T13:44:20;32.80;1.00
15364;DHT22;7781;49.690;6.472;2022-07-30T13:46:48;32.50;1.00
15364;DHT22;7781;49.690;6.472;2022-07-30T13:49:17;32.50;1.00
15364;DHT22;7781;49.690;6.472;2022-07-30T13:51:45;32.20;1.00
15364;DHT22;7781;49.690;6.472;2022-07-30T13:54:14;32.40;1.00
15364;DHT22;7781;49.690;6.472;2022-07-30T13:56:42;33.00;1.00
15364;DHT22;7781;49.690;6.472;2022-07-30T13:59:10;33.10;1.00
15364;DHT22;7781;49.690;6.472;2022-07-30T14:01:38;34.00;1.00
15364;DHT22;7781;49.690;6.472;2022-07-30T14:04:06;34.30;1.00
15364;DHT22;7781;49.690;6.472;2022-07-30T14:06:36;34.70;1.00
15364;DHT22;7781;49.690;6.472;2022-07-30T14:09:04;34.60;1.00
15364;DHT22;7781;49.690;6.472;2022-07-30T14:11:32;34.10;1.00
15364;DHT22;7781;49.690;6.472;2022-07-30T14:14:01;33.90;1.00
15364;DHT22;7781;49.690;6.472;2022-07-30T14:16:29;34.50;1.00
15364;DHT22;7781;49.690;6.472;2022-07-30T14:19:12;35.20;1.00
15364;DHT22;7781;49.690;6.472;2022-07-30T14:21:52;34.80;1.00
15364;DHT22;7781;49.690;6.472;2022-07-30T14:24:21;34.30;1.00
15364;DHT22;7781;49.690;6.472;2022-07-30T14:26:49;34.00;1.00
15364;DHT22;7781;49.690;6.472;2022-07-30T14:29:24;33.70;1.00
15364;DHT22;7781;49.690;6.472;2022-07-30T14:31:52;34.00;1.00
15364;DHT22;7781;49.690;6.472;2022-07-30T14:34:21;34.00;1.00
15364;DHT22;7781;49.690;6.472;2022-07-30T14:36:50;33.90;1.00
15364;DHT22;7781;49.690;6.472;2022-07-30T14:39:18;33.90;1.00
15364;DHT22;7781;49.690;6.472;2022-07-30T14:41:47;33.00;1.00
15364;DHT22;7781;49.690;6.472;2022-07-30T14:44:21;32.20;1.00
15364;DHT22;7781;49.690;6.472;2022-07-30T14:46:50;31.80;1.00
15364;DHT22;7781;49.690;6.472;2022-07-30T14:49:19;31.50;1.00
15364;DHT22;7781;49.690;6.472;2022-07-30T14:51:48;31.40;1.00
15364;DHT22;7781;49.690;6.472;2022-07-30T14:54:18;30.80;1.00
15364;DHT22;7781;49.690;6.472;2022-07-30T14:56:46;30.20;1.00
15364;DHT22;7781;49.690;6.472;2022-07-30T14:59:14;30.00;1.00
15364;DHT22;7781;49.690;6.472;2022-07-30T15:01:43;30.00;1.00
15364;DHT22;7781;49.690;6.472;2022-07-30T15:04:13;30.20;1.00
15364;DHT22;7781;49.690;6.472;2022-07-30T15:06:41;30.20;1.00
15364;DHT22;7781;49.690;6.472;2022-07-30T15:09:10;30.00;1.00
15364;DHT22;7781;49.690;6.472;2022-07-30T15:11:39;29.80;1.00
15364;DHT22;7781;49.690;6.472;2022-07-30T15:14:27;29.70;1.00
15364;DHT22;7781;49.690;6.472;2022-07-30T15:16:55;29.70;1.00
15364;DHT22;7781;49.690;6.472;2022-07-30T15:19:30;29.60;1.00
15364;DHT22;7781;49.690;6.472;2022-07-30T15:21:59;29.60;1.00
15364;DHT22;7781;49.690;6.472;2022-07-30T15:24:29;29.70;1.00
15364;DHT22;7781;49.690;6.472;2022-07-30T15:26:59;29.80;1.00
15364;DHT22;7781;49.690;6.472;2022-07-30T15:29:28;29.80;1.00
15364;DHT22;7781;49.690;6.472;2022-07-30T15:31:57;29.80;1.00
15364;DHT22;7781;49.690;6.472;2022-07-30T15:34:27;30.00;1.00
15364;DHT22;7781;49.690;6.472;2022-07-30T15:37:00;30.40;1.00
15364;DHT22;7781;49.690;6.472;2022-07-30T15:39:28;31.00;1.00
15364;DHT22;7781;49.690;6.472;2022-07-30T15:42:00;31.40;1.00
15364;DHT22;7781;49.690;6.472;2022-07-30T15:44:29;31.80;1.00
15364;DHT22;7781;49.690;6.472;2022-07-30T15:46:57;31.80;1.00
15364;DHT22;7781;49.690;6.472;2022-07-30T15:49:25;31.80;1.00
15364;DHT22;7781;49.690;6.472;2022-07-30T15:51:53;31.60;1.00
15364;DHT22;7781;49.690;6.472;2022-07-30T15:54:23;31.10;1.00
15364;DHT22;7781;49.690;6.472;2022-07-30T15:56:52;30.70;1.00
15364;DHT22;7781;49.690;6.472;2022-07-30T15:59:29;30.30;1.00
15364;DHT22;7781;49.690;6.472;2022-07-30T16:01:57;30.20;1.00
15364;DHT22;7781;49.690;6.472;2022-07-30T16:04:26;30.30;1.00
15364;DHT22;7781;49.690;6.472;2022-07-30T16:06:58;30.30;1.00
15364;DHT22;7781;49.690;6.472;2022-07-30T16:09:26;30.30;1.00
15364;DHT22;7781;49.690;6.472;2022-07-30T16:11:55;30.20;1.00
15364;DHT22;7781;49.690;6.472;2022-07-30T16:14:24;30.00;1.00
15364;DHT22;7781;49.690;6.472;2022-07-30T16:16:54;29.80;1.00
15364;DHT22;7781;49.690;6.472;2022-07-30T16:19:22;29.70;1.00
15364;DHT22;7781;49.690;6.472;2022-07-30T16:21:50;29.50;1.00
15364;DHT22;7781;49.690;6.472;2022-07-30T16:24:18;29.60;1.00
15364;DHT22;7781;49.690;6.472;2022-07-30T16:26:47;29.60;1.00
15364;DHT22;7781;49.690;6.472;2022-07-30T16:29:16;29.50;1.00
15364;DHT22;7781;49.690;6.472;2022-07-30T16:31:45;29.50;1.00
15364;DHT22;7781;49.690;6.472;2022-07-30T16:34:14;29.30;1.00
15364;DHT22;7781;49.690;6.472;2022-07-30T16:36:52;29.20;1.00
15364;DHT22;7781;49.690;6.472;2022-07-30T16:39:20;29.20;1.00
15364;DHT22;7781;49.690;6.472;2022-07-30T16:41:48;29.00;1.00